Time;durP1;ratioP1;P1;durP2;ratioP2;P2;SDS_P1;SDS_P2;PMS_P1;PMS_P2;Temp;Humidity;BMP_temperature;BMP_pressure;BME280_temperature;BME280_humidity;BME280_pressure;Samples;Min_cycle;Max_cycle;Signal;HPM_P1;HPM_P2
2023/01/19 00:02:20;;;;;;;1999.90;999.90;;;4.00;99.90;;;;;;5013780;28;20473;-78
2023/01/19 00:04:45;;;;;;;1999.90;999.90;;;4.00;99.90;;;;;;5012307;28;20022;-78
2023/01/19 00:07:11;;;;;;;1999.90;999.90;;;4.10;99.90;;;;;;5013552;28;20026;-78
2023/01/19 00:09:45;;;;;;;1999.90;999.90;;;4.10;99.90;;;;;;5012370;28;20030;-78
2023/01/19 00:12:11;;;;;;;1999.90;999.90;;;4.20;99.90;;;;;;5013572;28;20038;-78
2023/01/19 00:14:36;;;;;;;1999.90;999.90;;;4.20;99.90;;;;;;5013335;28;20057;-78
2023/01/19 00:17:02;;;;;;;1999.90;999.90;;;4.20;99.90;;;;;;5013499;28;20021;-78
2023/01/19 00:19:28;;;;;;;1999.90;999.90;;;4.20;99.90;;;;;;5013397;28;20119;-78
2023/01/19 00:21:54;;;;;;;1999.90;999.90;;;4.20;99.90;;;;;;5013300;28;20061;-78
2023/01/19 00:24:20;;;;;;;1999.90;999.90;;;4.20;99.90;;;;;;5013585;28;20396;-78
2023/01/19 00:26:46;;;;;;;1999.90;999.90;;;4.30;99.90;;;;;;5013368;28;20485;-78
2023/01/19 00:29:12;;;;;;;1999.90;999.90;;;4.20;99.90;;;;;;5013366;28;20080;-78
2023/01/19 00:31:38;;;;;;;1999.90;999.90;;;4.20;99.90;;;;;;5013217;28;20042;-78
2023/01/19 00:34:05;;;;;;;1999.90;999.90;;;4.20;99.90;;;;;;5013229;28;20499;-78
2023/01/19 00:36:31;;;;;;;1999.90;999.90;;;4.20;99.90;;;;;;5013484;28;20076;-78
2023/01/19 00:38:57;;;;;;;1999.90;999.90;;;4.20;99.90;;;;;;5013174;28;20105;-78
2023/01/19 00:42:38;;;;;;;1999.90;999.90;;;4.20;99.90;;;;;;5013202;28;20105;-78
2023/01/19 00:44:10;;;;;;;1999.90;999.90;;;4.20;99.90;;;;;;5012955;28;20061;-78
2023/01/19 00:46:37;;;;;;;1999.90;999.90;;;4.10;99.90;;;;;;5013070;28;20125;-78
2023/01/19 00:49:02;;;;;;;1999.90;999.90;;;4.10;99.90;;;;;;5013100;28;20033;-78
2023/01/19 00:51:28;;;;;;;1999.90;999.90;;;4.10;99.90;;;;;;5012979;28;20037;-78
2023/01/19 00:53:54;;;;;;;1999.90;999.90;;;4.10;99.90;;;;;;5013307;28;20069;-78
2023/01/19 00:56:19;;;;;;;1999.90;999.90;;;4.10;99.90;;;;;;5013245;28;20057;-78
2023/01/19 00:58:45;;;;;;;1999.90;999.90;;;4.10;99.90;;;;;;5013034;28;20465;-78
2023/01/19 01:01:11;;;;;;;1999.90;999.90;;;4.10;99.90;;;;;;5012996;28;20041;-78
2023/01/19 01:03:37;;;;;;;1999.90;999.90;;;4.10;99.90;;;;;;5016681;28;20112;-78
2023/01/19 01:06:05;;;;;;;1999.90;999.90;;;4.10;99.90;;;;;;5016924;28;20108;-78
2023/01/19 01:08:32;;;;;;;1999.90;999.90;;;4.10;99.90;;;;;;5016882;28;20112;-78
2023/01/19 01:10:57;;;;;;;1999.90;999.90;;;4.10;99.90;;;;;;5015402;28;20073;-78
2023/01/19 01:13:23;;;;;;;1999.90;999.90;;;4.10;99.90;;;;;;5016819;28;20076;-78
2023/01/19 01:15:50;;;;;;;1999.90;999.90;;;4.00;99.90;;;;;;5016579;28;20109;-78
2023/01/19 01:18:16;;;;;;;1999.90;999.90;;;4.00;99.90;;;;;;5015153;28;20022;-78
2023/01/19 01:20:42;;;;;;;1999.90;999.90;;;4.10;99.90;;;;;;5016368;28;20543;-78
2023/01/19 01:23:07;;;;;;;1999.90;999.90;;;4.10;99.90;;;;;;5016681;28;20053;-78
2023/01/19 01:25:36;;;;;;;1999.90;999.90;;;4.10;99.90;;;;;;5016549;28;20049;-78
2023/01/19 01:28:04;;;;;;;1999.90;999.90;;;4.20;99.90;;;;;;5016468;28;20076;-78
2023/01/19 01:30:29;;;;;;;1999.90;999.90;;;4.20;99.90;;;;;;5016603;28;20026;-78
2023/01/19 01:32:55;;;;;;;1999.90;999.90;;;4.20;99.90;;;;;;5016215;28;20129;-78
2023/01/19 01:35:21;;;;;;;1999.90;999.90;;;4.20;99.90;;;;;;5014961;28;20034;-78
2023/01/19 01:37:46;;;;;;;1999.90;999.90;;;4.20;99.90;;;;;;5016258;28;20022;-78
2023/01/19 01:40:15;;;;;;;1999.90;999.90;;;4.20;99.90;;;;;;5016626;28;20401;-78
2023/01/19 01:42:42;;;;;;;1999.90;999.90;;;4.30;99.90;;;;;;5016460;28;20113;-78
2023/01/19 01:45:25;;;;;;;1999.90;999.90;;;4.30;99.90;;;;;;5016096;28;20037;-78
2023/01/19 01:47:53;;;;;;;1999.90;999.90;;;4.30;99.90;;;;;;5016105;28;20037;-78
2023/01/19 01:50:25;;;;;;;1999.90;999.90;;;4.30;99.90;;;;;;5014728;28;20048;-78
2023/01/19 01:53:12;;;;;;;1999.90;999.90;;;4.30;99.90;;;;;;5015974;28;20116;-78
2023/01/19 01:55:48;;;;;;;1999.90;999.90;;;4.30;99.90;;;;;;5015791;28;20030;-78
2023/01/19 01:58:15;;;;;;;1999.90;999.90;;;4.30;99.90;;;;;;5016200;28;20018;-78
2023/01/19 02:03:27;;;;;;;1999.90;999.90;;;4.30;99.90;;;;;;5015750;28;20037;-78
2023/01/19 02:05:59;;;;;;;1999.90;999.90;;;4.30;99.90;;;;;;5015629;28;20025;-78
2023/01/19 02:14:14;;;;;;;1999.90;999.90;;;4.30;99.90;;;;;;5013600;28;20117;-78
2023/01/19 02:16:40;;;;;;;1999.90;999.90;;;4.30;99.90;;;;;;5015595;28;20517;-78
2023/01/19 02:19:09;;;;;;;1999.90;999.90;;;4.30;99.90;;;;;;5015556;28;20014;-78
2023/01/19 02:21:58;;;;;;;1999.90;999.90;;;4.30;99.90;;;;;;5013850;28;20061;-78
2023/01/19 02:24:24;;;;;;;1999.90;999.90;;;4.30;99.90;;;;;;5015392;28;20079;-78
2023/01/19 02:26:50;;;;;;;1999.90;999.90;;;4.20;99.90;;;;;;5015421;28;20064;-78
2023/01/19 02:29:22;;;;;;;1999.90;999.90;;;4.20;99.90;;;;;;5015424;28;20400;-78
2023/01/19 02:31:48;;;;;;;1999.90;999.90;;;4.10;99.90;;;;;;5015112;28;20113;-78
2023/01/19 02:34:19;;;;;;;1999.90;999.90;;;4.00;99.90;;;;;;5013979;28;20165;-78
2023/01/19 02:36:53;;;;;;;1999.90;999.90;;;4.00;99.90;;;;;;5015264;28;20119;-78
2023/01/19 02:39:40;;;;;;;1999.90;999.90;;;3.90;99.90;;;;;;5015206;28;20018;-78
2023/01/19 02:42:11;;;;;;;1999.90;999.90;;;3.80;99.90;;;;;;5014511;28;20042;-78
2023/01/19 02:44:38;;;;;;;1999.90;999.90;;;3.80;99.90;;;;;;5015119;28;20026;-78
2023/01/19 02:47:04;;;;;;;1999.90;999.90;;;3.80;99.90;;;;;;5014937;28;20033;-78
2023/01/19 02:49:30;;;;;;;1999.90;999.90;;;3.70;99.90;;;;;;5014777;28;20405;-78
2023/01/19 02:51:56;;;;;;;1999.90;999.90;;;3.60;99.90;;;;;;5013598;28;20026;-78
2023/01/19 02:54:25;;;;;;;1999.90;999.90;;;3.50;99.90;;;;;;5013516;28;20022;-78
2023/01/19 02:57:23;;;;;;;1999.90;999.90;;;3.40;99.90;;;;;;5014880;28;20022;-78
2023/01/19 03:00:22;;;;;;;1999.90;999.90;;;3.30;99.90;;;;;;5013526;28;20519;-78
2023/01/19 03:03:06;;;;;;;1999.90;999.90;;;3.20;99.90;;;;;;5014794;28;20034;-78
2023/01/19 03:05:55;;;;;;;1999.90;999.90;;;3.00;99.90;;;;;;5014559;28;20053;-78
2023/01/19 03:08:47;;;;;;;1999.90;999.90;;;2.90;99.90;;;;;;5014751;28;20030;-78
2023/01/19 03:11:13;;;;;;;1999.90;999.90;;;2.80;99.90;;;;;;5013794;28;20084;-78
2023/01/19 03:13:47;;;;;;;1999.90;999.90;;;2.70;99.90;;;;;;5014407;28;20034;-78
2023/01/19 03:16:20;;;;;;;1999.90;999.90;;;2.70;99.90;;;;;;5012908;28;20527;-78
2023/01/19 03:18:50;;;;;;;1999.90;999.90;;;2.70;99.90;;;;;;5014413;28;20482;-78
2023/01/19 03:21:18;;;;;;;1999.90;999.90;;;2.70;99.90;;;;;;5014103;28;20570;-78
2023/01/19 03:23:45;;;;;;;1999.90;999.90;;;2.60;99.90;;;;;;5014233;28;20057;-78
2023/01/19 03:26:16;;;;;;;1999.90;999.90;;;2.60;99.90;;;;;;5014004;28;20053;-78
2023/01/19 03:28:45;;;;;;;1999.90;999.90;;;2.60;99.90;;;;;;5014511;28;20033;-78
2023/01/19 03:31:15;;;;;;;1999.90;999.90;;;2.50;99.90;;;;;;5012767;28;20022;-78
2023/01/19 03:33:45;;;;;;;1999.90;999.90;;;2.60;99.90;;;;;;5014059;28;20045;-78
2023/01/19 03:36:17;;;;;;;1999.90;999.90;;;2.50;99.90;;;;;;5013979;28;20037;-78
2023/01/19 03:38:45;;;;;;;1999.90;999.90;;;2.60;99.90;;;;;;5014314;28;20030;-78
2023/01/19 03:41:16;;;;;;;1999.90;999.90;;;2.50;99.90;;;;;;5014149;28;20049;-78
2023/01/19 03:43:43;;;;;;;1999.90;999.90;;;2.40;99.90;;;;;;5014119;28;20096;-78
2023/01/19 03:46:10;;;;;;;1999.90;999.90;;;2.30;99.90;;;;;;5014076;28;20029;-78
2023/01/19 03:48:37;;;;;;;1999.90;999.90;;;2.30;99.90;;;;;;5013942;28;20026;-78
2023/01/19 03:51:05;;;;;;;1999.90;999.90;;;2.40;99.90;;;;;;5013630;28;20022;-78
2023/01/19 03:53:31;;;;;;;1999.90;999.90;;;2.40;99.90;;;;;;5013741;28;20025;-78
2023/01/19 03:55:56;;;;;;;1999.90;999.90;;;2.40;99.90;;;;;;5013645;28;20432;-78
2023/01/19 03:58:22;;;;;;;1999.90;999.90;;;2.40;99.90;;;;;;5013796;28;20105;-78
2023/01/19 04:00:48;;;;;;;1999.90;999.90;;;2.40;99.90;;;;;;5013832;28;20104;-78
2023/01/19 04:03:15;;;;;;;1999.90;999.90;;;2.40;99.90;;;;;;5012494;28;20038;-78
2023/01/19 04:05:41;;;;;;;1999.90;999.90;;;2.40;99.90;;;;;;5013889;28;20075;-78
2023/01/19 04:08:07;;;;;;;1999.90;999.90;;;2.40;99.90;;;;;;5013903;28;20037;-77
2023/01/19 04:10:33;;;;;;;1999.90;999.90;;;2.40;99.90;;;;;;5012390;28;20021;-78
2023/01/19 04:12:59;;;;;;;1999.90;999.90;;;2.50;99.90;;;;;;5012288;28;20087;-78
2023/01/19 04:15:25;;;;;;;1999.90;999.90;;;2.50;99.90;;;;;;5024066;28;20033;-77
2023/01/19 04:17:51;;;;;;;1999.90;999.90;;;2.50;99.90;;;;;;5031832;28;20064;-77
2023/01/19 04:20:17;;;;;;;1999.90;999.90;;;2.50;99.90;;;;;;5013407;28;20065;-78
2023/01/19 04:22:42;;;;;;;1999.90;999.90;;;2.60;99.90;;;;;;5012022;28;20516;-78
2023/01/19 04:25:09;;;;;;;1999.90;999.90;;;2.60;99.90;;;;;;5013256;28;20096;-78
2023/01/19 04:27:35;;;;;;;1999.90;999.90;;;2.60;99.90;;;;;;5013315;28;20088;-78
2023/01/19 04:30:02;;;;;;;1999.90;999.90;;;2.60;99.90;;;;;;5013299;28;20056;-78
2023/01/19 04:32:29;;;;;;;1999.90;999.90;;;2.60;99.90;;;;;;5013256;28;20072;-78
2023/01/19 04:34:54;;;;;;;1999.90;999.90;;;2.50;99.90;;;;;;5012035;28;20117;-78
2023/01/19 04:37:20;;;;;;;1999.90;999.90;;;2.50;99.90;;;;;;5012793;28;20045;-78
2023/01/19 04:39:46;;;;;;;1999.90;999.90;;;2.50;99.90;;;;;;5013726;28;20022;-78
2023/01/19 04:42:12;;;;;;;1999.90;999.90;;;2.60;99.90;;;;;;5013521;28;20080;-78
2023/01/19 04:44:38;;;;;;;1999.90;999.90;;;2.60;99.90;;;;;;5013299;28;20382;-78
2023/01/19 04:47:03;;;;;;;1999.90;999.90;;;2.60;99.90;;;;;;5013271;28;20029;-78
2023/01/19 04:49:29;;;;;;;1999.90;999.90;;;2.60;99.90;;;;;;5013036;28;20481;-78
2023/01/19 04:51:55;;;;;;;1999.90;999.90;;;2.70;99.90;;;;;;5011661;28;20030;-78
2023/01/19 04:54:21;;;;;;;1999.90;999.90;;;2.60;99.90;;;;;;5013285;28;20050;-77
2023/01/19 04:56:47;;;;;;;1999.90;999.90;;;2.60;99.90;;;;;;5013352;28;20469;-78
2023/01/19 04:59:13;;;;;;;1999.90;999.90;;;2.60;99.90;;;;;;5012849;28;20023;-78
2023/01/19 05:01:39;;;;;;;1999.90;999.90;;;2.70;99.90;;;;;;5013205;28;20032;-78
2023/01/19 05:04:05;;;;;;;1999.90;999.90;;;2.70;99.90;;;;;;5012974;28;20111;-78
2023/01/19 05:06:32;;;;;;;1999.90;999.90;;;2.60;99.90;;;;;;5013157;28;20556;-78
2023/01/19 05:08:58;;;;;;;1999.90;999.90;;;2.60;99.90;;;;;;5013292;28;20121;-78
2023/01/19 05:11:23;;;;;;;1999.90;999.90;;;2.60;99.90;;;;;;5012910;28;20109;-78
2023/01/19 05:13:49;;;;;;;1999.90;999.90;;;2.60;99.90;;;;;;5012927;28;20077;-78
2023/01/19 05:16:15;;;;;;;1999.90;999.90;;;2.60;99.90;;;;;;5013572;28;20018;-78
2023/01/19 05:18:40;;;;;;;1999.90;999.90;;;2.60;99.90;;;;;;5012626;28;20482;-78
2023/01/19 05:21:06;;;;;;;1999.90;999.90;;;2.60;99.90;;;;;;5012607;28;20042;-78
2023/01/19 05:23:32;;;;;;;1999.90;999.90;;;2.70;99.90;;;;;;5012907;28;20477;-78
2023/01/19 05:26:02;;;;;;;1999.90;999.90;;;2.70;99.90;;;;;;5013044;28;20068;-77
2023/01/19 05:28:29;;;;;;;1999.90;999.90;;;2.60;99.90;;;;;;5011506;28;20030;-78
2023/01/19 05:30:55;;;;;;;1999.90;999.90;;;2.50;99.90;;;;;;5012883;28;20022;-78
2023/01/19 05:33:21;;;;;;;1999.90;999.90;;;2.60;99.90;;;;;;5011383;28;20037;-78
2023/01/19 05:35:51;;;;;;;1999.90;999.90;;;2.60;99.90;;;;;;5012766;28;20382;-78
2023/01/19 05:38:18;;;;;;;1999.90;999.90;;;2.60;99.90;;;;;;5012529;28;20389;-78
2023/01/19 05:40:44;;;;;;;1999.90;999.90;;;2.70;99.90;;;;;;5012689;28;20500;-78
2023/01/19 05:43:10;;;;;;;1999.90;999.90;;;2.60;99.90;;;;;;5012620;28;20030;-78
2023/01/19 05:45:37;;;;;;;1999.90;999.90;;;2.60;99.90;;;;;;5012530;28;20026;-78
2023/01/19 05:48:07;;;;;;;1999.90;999.90;;;2.60;99.90;;;;;;5012261;28;20037;-78
2023/01/19 05:50:33;;;;;;;1999.90;999.90;;;2.60;99.90;;;;;;5016418;28;20022;-78
2023/01/19 05:53:00;;;;;;;1999.90;999.90;;;2.50;99.90;;;;;;5016040;28;20033;-78
2023/01/19 05:55:26;;;;;;;1999.90;999.90;;;2.50;99.90;;;;;;5014825;28;20057;-78
2023/01/19 05:57:52;;;;;;;1999.90;999.90;;;2.40;99.90;;;;;;5016010;28;20029;-78
2023/01/19 06:00:18;;;;;;;1999.90;999.90;;;2.20;99.90;;;;;;5016155;28;20424;-78
2023/01/19 06:02:45;;;;;;;1999.90;999.90;;;2.20;99.90;;;;;;5015742;28;20021;-78
2023/01/19 06:05:11;;;;;;;1999.90;999.90;;;2.10;99.90;;;;;;5016077;28;20075;-78
2023/01/19 06:07:36;;;;;;;1999.90;999.90;;;2.10;99.90;;;;;;5015852;28;20503;-78
2023/01/19 06:10:02;;;;;;;1999.90;999.90;;;2.00;99.90;;;;;;5015741;28;20029;-78
2023/01/19 06:12:28;;;;;;;1999.90;999.90;;;2.10;99.90;;;;;;5015992;28;20481;-78
2023/01/19 06:14:53;;;;;;;1999.90;999.90;;;2.10;99.90;;;;;;5015554;28;20037;-78
2023/01/19 06:17:19;;;;;;;1999.90;999.90;;;2.30;99.90;;;;;;5015518;28;20038;-78
2023/01/19 06:19:45;;;;;;;1999.90;999.90;;;2.50;99.90;;;;;;5015552;28;20029;-78
2023/01/19 06:22:10;;;;;;;1999.90;999.90;;;2.50;99.90;;;;;;5015489;28;20590;-78
2023/01/19 06:24:36;;;;;;;1999.90;999.90;;;2.70;99.90;;;;;;5015533;28;20076;-77
2023/01/19 06:27:01;;;;;;;1999.90;999.90;;;2.70;99.90;;;;;;5014074;28;20032;-77
2023/01/19 06:29:27;;;;;;;1999.90;999.90;;;2.80;99.90;;;;;;5015630;28;20056;-77
2023/01/19 06:31:53;;;;;;;1999.90;999.90;;;2.80;99.90;;;;;;5015096;28;20033;-77
2023/01/19 06:34:19;;;;;;;1999.90;999.90;;;2.80;99.90;;;;;;5015564;28;20032;-78
2023/01/19 06:36:45;;;;;;;1999.90;999.90;;;2.80;99.90;;;;;;5013863;28;20028;-78
2023/01/19 06:39:11;;;;;;;1999.90;999.90;;;2.80;99.90;;;;;;5015403;28;20183;-79
2023/01/19 06:41:37;;;;;;;1999.90;999.90;;;2.70;99.90;;;;;;5012219;28;20556;-79
2023/01/19 06:44:04;;;;;;;1999.90;999.90;;;2.70;99.90;;;;;;5014883;28;20075;-79
2023/01/19 06:46:30;;;;;;;1999.90;999.90;;;2.70;99.90;;;;;;5015034;28;20456;-79
2023/01/19 06:48:56;;;;;;;1999.90;999.90;;;2.70;99.90;;;;;;5014758;28;20037;-79
2023/01/19 06:51:22;;;;;;;1999.90;999.90;;;2.60;99.90;;;;;;5014756;28;20401;-82
2023/01/19 06:53:48;;;;;;;1999.90;999.90;;;2.60;99.90;;;;;;5015104;28;20492;-81
2023/01/19 06:56:14;;;;;;;1999.90;999.90;;;2.60;99.90;;;;;;5013234;28;20112;-81
2023/01/19 06:58:41;;;;;;;1999.90;999.90;;;2.60;99.90;;;;;;5014064;28;20041;-80
2023/01/19 07:01:07;;;;;;;1999.90;999.90;;;2.70;99.90;;;;;;5022079;28;20104;-81
2023/01/19 07:03:34;;;;;;;1999.90;999.90;;;2.60;99.90;;;;;;5033599;28;20522;-81
2023/01/19 07:06:05;;;;;;;1999.90;999.90;;;2.60;99.90;;;;;;5023182;28;20448;-82
2023/01/19 07:08:32;;;;;;;1999.90;999.90;;;2.60;99.90;;;;;;5005241;28;20026;-82
2023/01/19 07:11:04;;;;;;;1999.90;999.90;;;2.70;99.90;;;;;;5009393;28;20030;-79
2023/01/19 07:13:31;;;;;;;1999.90;999.90;;;2.70;99.90;;;;;;5010771;28;20018;-81
2023/01/19 07:16:03;;;;;;;1999.90;999.90;;;2.70;99.90;;;;;;5023407;28;20456;-81
2023/01/19 07:18:29;;;;;;;1999.90;999.90;;;2.70;99.90;;;;;;5031436;28;20021;-80
2023/01/19 07:20:56;;;;;;;1999.90;999.90;;;2.60;99.90;;;;;;5029638;28;20045;-81
2023/01/19 07:23:22;;;;;;;1999.90;999.90;;;2.60;99.90;;;;;;5006059;28;20036;-81
2023/01/19 07:25:48;;;;;;;1999.90;999.90;;;2.70;99.90;;;;;;5010323;28;20141;-81
2023/01/19 07:28:15;;;;;;;1999.90;999.90;;;2.50;99.90;;;;;;5014465;28;20079;-79
2023/01/19 07:30:42;;;;;;;1999.90;999.90;;;2.50;99.90;;;;;;5012226;28;20394;-81
2023/01/19 07:33:08;;;;;;;1999.90;999.90;;;2.50;99.90;;;;;;5010887;28;20034;-80
2023/01/19 07:35:34;;;;;;;1999.90;999.90;;;2.40;99.90;;;;;;5011701;28;20057;-80
2023/01/19 07:37:59;;;;;;;1999.90;999.90;;;2.50;99.90;;;;;;5011194;28;20061;-80
2023/01/19 07:40:25;;;;;;;1999.90;999.90;;;2.50;99.90;;;;;;5010692;28;20025;-80
2023/01/19 07:42:51;;;;;;;1999.90;999.90;;;2.50;99.90;;;;;;5010534;28;20520;-79
2023/01/19 07:45:19;;;;;;;1999.90;999.90;;;2.50;99.90;;;;;;5012432;28;20026;-80
2023/01/19 07:47:47;;;;;;;1999.90;999.90;;;2.60;99.90;;;;;;5018053;28;20057;-80
2023/01/19 07:50:14;;;;;;;1999.90;999.90;;;2.50;99.90;;;;;;5025759;28;20068;-80
2023/01/19 07:52:41;;;;;;;1999.90;999.90;;;2.60;99.90;;;;;;5015811;28;20031;-79
2023/01/19 07:55:07;;;;;;;1999.90;999.90;;;2.60;99.90;;;;;;5011342;28;20089;-82
2023/01/19 07:57:33;;;;;;;1999.90;999.90;;;2.70;99.90;;;;;;5012964;28;20029;-82
2023/01/19 07:59:58;;;;;;;1999.90;999.90;;;2.70;99.90;;;;;;5015207;28;20026;-82
2023/01/19 08:02:24;;;;;;;1999.90;999.90;;;2.70;99.90;;;;;;5022690;28;20463;-82
2023/01/19 08:04:50;;;;;;;1999.90;999.90;;;2.70;99.90;;;;;;5019709;28;20021;-80
2023/01/19 08:07:16;;;;;;;1999.90;999.90;;;2.80;99.90;;;;;;5019390;28;20065;-79
2023/01/19 08:09:42;;;;;;;1999.90;999.90;;;3.00;99.90;;;;;;5011552;28;20056;-85
2023/01/19 08:12:07;;;;;;;1999.90;999.90;;;3.10;99.90;;;;;;5004700;28;20064;-87
2023/01/19 08:14:33;;;;;;;1999.90;999.90;;;3.30;99.90;;;;;;5014569;28;20029;-84
2023/01/19 08:17:00;;;;;;;1999.90;999.90;;;3.60;99.90;;;;;;5009325;28;20029;-83
2023/01/19 08:19:25;;;;;;;1999.90;999.90;;;3.80;99.90;;;;;;5010857;28;20025;-85
2023/01/19 08:21:51;;;;;;;1999.90;999.90;;;4.00;99.90;;;;;;5008954;28;20050;-84
2023/01/19 08:24:20;;;;;;;1999.90;999.90;;;4.10;99.90;;;;;;5010287;28;20037;-85
2023/01/19 08:26:46;;;;;;;1999.90;999.90;;;4.00;99.90;;;;;;5009918;28;20117;-83
2023/01/19 08:29:12;;;;;;;1999.90;999.90;;;4.00;99.90;;;;;;5010786;28;20121;-84
2023/01/19 08:31:38;;;;;;;1999.90;999.90;;;3.90;99.90;;;;;;5012460;28;20487;-81
2023/01/19 08:34:04;;;;;;;1999.90;999.90;;;3.90;99.90;;;;;;5010023;28;20026;-82
2023/01/19 08:36:30;;;;;;;1999.90;999.90;;;3.90;99.90;;;;;;5012392;28;20050;-81
2023/01/19 08:38:56;;;;;;;1999.90;999.90;;;3.90;99.90;;;;;;5009922;28;20055;-80
2023/01/19 08:41:21;;;;;;;1999.90;999.90;;;3.90;99.90;;;;;;5006100;28;20029;-81
2023/01/19 08:43:48;;;;;;;1999.90;999.90;;;3.90;99.90;;;;;;5012636;28;20026;-80
2023/01/19 08:46:16;;;;;;;1999.90;999.90;;;3.90;99.90;;;;;;5010201;28;20025;-81
2023/01/19 08:48:43;;;;;;;1999.90;999.90;;;4.00;99.90;;;;;;5008177;28;20501;-84
2023/01/19 08:51:11;;;;;;;1999.90;999.90;;;4.10;99.90;;;;;;5009780;28;20489;-81
2023/01/19 08:53:37;;;;;;;1999.90;999.90;;;4.20;99.90;;;;;;5012641;28;20022;-81
2023/01/19 08:56:02;;;;;;;1999.90;999.90;;;4.30;99.90;;;;;;5013801;28;20401;-81
2023/01/19 08:58:28;;;;;;;1999.90;999.90;;;4.10;99.90;;;;;;5010423;28;20030;-81
2023/01/19 09:00:54;;;;;;;1999.90;999.90;;;4.20;99.90;;;;;;5008965;28;20053;-83
2023/01/19 09:03:21;;;;;;;1999.90;999.90;;;4.30;99.90;;;;;;5011864;28;20036;-82
2023/01/19 09:05:47;;;;;;;1999.90;999.90;;;4.60;99.90;;;;;;5008170;28;20030;-82
2023/01/19 09:08:14;;;;;;;1999.90;999.90;;;4.80;99.90;;;;;;5008861;28;20053;-83
2023/01/19 09:10:45;;;;;;;1999.90;999.90;;;5.00;99.90;;;;;;5008879;28;20029;-84
2023/01/19 09:13:11;;;;;;;1999.90;999.90;;;5.20;99.90;;;;;;5008088;28;20485;-83
2023/01/19 09:15:38;;;;;;;1999.90;999.90;;;5.30;99.90;;;;;;5008799;28;20029;-82
2023/01/19 09:18:05;;;;;;;1999.90;999.90;;;5.30;99.90;;;;;;5007431;28;20030;-80
2023/01/19 09:20:33;;;;;;;1999.90;999.90;;;5.30;99.90;;;;;;5008336;28;20037;-81
2023/01/19 09:22:59;;;;;;;1999.90;999.90;;;5.30;99.90;;;;;;5011240;28;20022;-84
2023/01/19 09:25:25;;;;;;;1999.90;999.90;;;5.40;99.90;;;;;;5012663;28;20036;-82
2023/01/19 09:27:51;;;;;;;1999.90;999.90;;;5.40;99.90;;;;;;5015191;28;20030;-83
2023/01/19 09:30:17;;;;;;;1999.90;999.90;;;5.50;99.90;;;;;;5011434;28;20091;-80
2023/01/19 09:32:44;;;;;;;1999.90;999.90;;;5.40;99.90;;;;;;5020860;28;20111;-80
2023/01/19 09:35:10;;;;;;;1999.90;999.90;;;5.40;99.90;;;;;;5029620;28;20501;-82
2023/01/19 09:37:36;;;;;;;1999.90;999.90;;;5.40;99.90;;;;;;5025567;28;20030;-82
2023/01/19 09:40:04;;;;;;;1999.90;999.90;;;5.30;99.90;;;;;;5011160;28;20793;-81
2023/01/19 09:42:35;;;;;;;1999.90;999.90;;;5.20;99.90;;;;;;5012280;28;20022;-80
2023/01/19 09:45:06;;;;;;;1999.90;999.90;;;5.20;99.90;;;;;;5008688;28;20042;-81
2023/01/19 09:47:34;;;;;;;1999.90;999.90;;;5.30;99.90;;;;;;5012466;28;20038;-79
2023/01/19 09:50:11;;;;;;;1999.90;999.90;;;5.40;99.90;;;;;;5008401;28;20041;-80
2023/01/19 09:52:42;;;;;;;1999.90;999.90;;;5.60;99.90;;;;;;5015487;28;20516;-81
2023/01/19 09:55:19;;;;;;;1999.90;999.90;;;5.70;99.90;;;;;;5012673;28;20057;-81
2023/01/19 09:57:45;;;;;;;1999.90;999.90;;;6.00;99.90;;;;;;5015673;28;20034;-81
2023/01/19 10:00:17;;;;;;;1999.90;999.90;;;6.00;99.90;;;;;;5018942;28;20033;-80
2023/01/19 10:02:51;;;;;;;1999.90;999.90;;;6.10;99.90;;;;;;5026626;28;20064;-78
2023/01/19 10:05:22;;;;;;;1999.90;999.90;;;6.00;99.90;;;;;;5025315;28;20099;-78
2023/01/19 10:07:54;;;;;;;1999.90;999.90;;;6.00;99.90;;;;;;5015205;28;20033;-78
2023/01/19 10:10:26;;;;;;;1999.90;999.90;;;6.00;99.90;;;;;;5013618;28;20528;-83
2023/01/19 10:13:00;;;;;;;1999.90;999.90;;;5.90;99.90;;;;;;5029614;28;20369;-81
2023/01/19 10:15:59;;;;;;;1999.90;999.90;;;5.90;99.90;;;;;;5033467;28;20455;-80
2023/01/19 10:18:41;;;;;;;1999.90;999.90;;;5.90;99.90;;;;;;5039778;28;20041;-81
2023/01/19 10:21:10;;;;;;;1999.90;999.90;;;5.80;99.90;;;;;;5028045;28;20524;-80
2023/01/19 10:24:03;;;;;;;1999.90;999.90;;;5.70;99.90;;;;;;5032512;28;20029;-80
2023/01/19 10:26:48;;;;;;;1999.90;999.90;;;5.70;99.90;;;;;;5008003;28;20046;-82
2023/01/19 10:29:22;;;;;;;1999.90;999.90;;;5.60;99.90;;;;;;5034256;28;20022;-83
2023/01/19 10:32:07;;;;;;;1999.90;999.90;;;5.60;99.90;;;;;;5021980;28;20082;-84
2023/01/19 10:34:33;;;;;;;1999.90;999.90;;;5.60;99.90;;;;;;5024689;28;20480;-82
2023/01/19 10:37:24;;;;;;;1999.90;999.90;;;5.60;99.90;;;;;;5036791;28;20036;-84
2023/01/19 10:40:18;;;;;;;1999.90;999.90;;;5.70;99.90;;;;;;5039263;28;20028;-85
2023/01/19 10:42:44;;;;;;;1999.90;999.90;;;5.70;99.90;;;;;;4986479;28;20038;-86
2023/01/19 10:45:19;;;;;;;1999.90;999.90;;;5.70;99.90;;;;;;5006314;28;20407;-84
2023/01/19 10:47:46;;;;;;;1999.90;999.90;;;5.60;99.90;;;;;;5018475;28;20049;-84
2023/01/19 10:50:29;;;;;;;1999.90;999.90;;;5.50;99.90;;;;;;5031727;28;20021;-86
2023/01/19 10:52:56;;;;;;;;;;;5.50;99.90;;;;;;5015057;28;20504;-87
2023/01/19 10:55:29;;;;;;;1999.90;999.90;;;5.40;99.90;;;;;;5013583;28;19913;-83
2023/01/19 10:57:56;;;;;;;1999.90;999.90;;;5.40;99.90;;;;;;5014820;28;20025;-81
2023/01/19 11:00:32;;;;;;;1999.90;999.90;;;5.40;99.90;;;;;;5011575;28;20148;-82
2023/01/19 11:02:58;;;;;;;1999.90;999.90;;;5.40;99.90;;;;;;5014249;28;20038;-79
2023/01/19 11:05:33;;;;;;;1999.90;999.90;;;5.40;99.90;;;;;;5010667;28;20350;-81
2023/01/19 11:07:59;;;;;;;1999.90;999.90;;;5.30;99.90;;;;;;5012390;28;20030;-82
2023/01/19 11:10:29;;;;;;;1999.90;999.90;;;5.30;99.90;;;;;;5009576;28;20543;-82
2023/01/19 11:13:02;;;;;;;1999.90;999.90;;;5.30;99.90;;;;;;5005696;28;20559;-82
2023/01/19 11:15:34;;;;;;;1999.90;999.90;;;5.20;99.90;;;;;;5010996;28;20145;-84
2023/01/19 11:18:02;;;;;;;1999.90;999.90;;;5.20;99.90;;;;;;5006758;28;20029;-81
2023/01/19 11:20:34;;;;;;;1999.90;999.90;;;5.10;99.90;;;;;;5010034;28;20083;-82
2023/01/19 11:23:05;;;;;;;1999.90;999.90;;;5.10;99.90;;;;;;5009991;28;20038;-81
2023/01/19 11:25:33;;;;;;;1999.90;999.90;;;5.10;99.90;;;;;;5002003;28;20404;-80
2023/01/19 11:27:59;;;;;;;1999.90;999.90;;;5.10;99.90;;;;;;5010350;28;20026;-82
2023/01/19 11:30:25;;;;;;;1999.90;999.90;;;5.10;99.90;;;;;;5012391;28;20022;-80
2023/01/19 11:32:52;;;;;;;1999.90;999.90;;;5.10;99.90;;;;;;5009191;28;20531;-80
2023/01/19 11:35:39;;;;;;;1999.90;999.90;;;5.10;99.90;;;;;;5011269;28;20030;-80
2023/01/19 11:38:18;;;;;;;1999.90;999.90;;;5.10;99.90;;;;;;5012327;28;20122;-80
2023/01/19 11:40:58;;;;;;;1999.90;999.90;;;5.20;99.90;;;;;;5013789;28;20071;-82
2023/01/19 11:43:28;;;;;;;1999.90;999.90;;;5.20;99.90;;;;;;5012544;28;20113;-81
2023/01/19 11:45:55;;;;;;;1999.90;999.90;;;5.20;99.90;;;;;;5008600;28;20040;-81
2023/01/19 11:48:35;;;;;;;1999.90;999.90;;;5.20;99.90;;;;;;5011322;28;20062;-83
2023/01/19 11:51:04;;;;;;;1999.90;999.90;;;5.20;99.90;;;;;;5011329;28;20029;-82
2023/01/19 11:53:33;;;;;;;1999.90;999.90;;;5.20;99.90;;;;;;5003741;28;20034;-81
2023/01/19 11:56:08;;;;;;;1999.90;999.90;;;5.20;99.90;;;;;;5010511;28;20053;-79
2023/01/19 11:58:42;;;;;;;1999.90;999.90;;;5.30;99.90;;;;;;5014061;28;20053;-81
2023/01/19 12:01:16;;;;;;;1999.90;999.90;;;5.20;99.90;;;;;;5010307;28;20065;-79
2023/01/19 12:03:57;;;;;;;1999.90;999.90;;;5.20;99.90;;;;;;5009909;28;20025;-79
2023/01/19 12:06:30;;;;;;;1999.90;999.90;;;5.20;99.90;;;;;;5007446;28;20026;-81
2023/01/19 12:08:58;;;;;;;;;;;5.20;99.90;;;;;;5012072;28;20072;-84
2023/01/19 12:11:33;;;;;;;1999.90;999.90;;;5.30;99.90;;;;;;5008208;28;20414;-83
2023/01/19 12:14:00;;;;;;;1999.90;999.90;;;5.20;99.90;;;;;;5010727;28;20042;-83
2023/01/19 12:16:29;;;;;;;1999.90;999.90;;;5.20;99.90;;;;;;5009543;28;20014;-82
2023/01/19 12:19:10;;;;;;;1999.90;999.90;;;5.20;99.90;;;;;;5011118;28;20060;-83
2023/01/19 12:21:36;;;;;;;1999.90;999.90;;;5.20;99.90;;;;;;5010801;28;20041;-84
2023/01/19 12:24:25;;;;;;;1999.90;999.90;;;5.10;99.90;;;;;;5011127;28;20034;-84
2023/01/19 12:26:59;;;;;;;1999.90;999.90;;;5.10;99.90;;;;;;5009752;28;20075;-83